Startpagina
METAR-TAF:

METAR-TAF

Vliegvelden :

Nouméa / La Tontouta, Nieuw-Caledonië

breedte: 22-01S, lengte: 166-13E, hoogte: 16 m

Actueel weer

Dit bericht is 5 minuten geleden gemaakt, om 16:30 UTC
Weinig wind
Temperatuur 19°C
Vochtigheid 88%
Druk 1012 hPa
Zicht 10 km of meer
Weinig wolken op 3500 ft
Gebroken wolken op 6600 ft

METAR: NWWW 301630Z AUTO 00000KT 9999 FEW035 BKN066 19/17 Q1012 NOSIG

Tijdstip: 03:35 (16:35 UTC)

Verwachting

Dit bericht is 5 uur en het 35 minuten geleden gemaakt, om 11:00 UTC
Verwachting geldig van 30 om 12 UTC tot 01 om 12 UTC
Wind 2 kt uit variabele richting
Zicht 10 km of meer
Weinig wolken op 3500 ft
Wijzigt naar
van 01 om 00 UTC tot 01 om 02 UTC
Wind 15 kt uit het zuidzuidoosten
Wijzigt naar
van 01 om 06 UTC tot 01 om 08 UTC
Wind 2 kt uit variabele richting

TAF: NWWW 301100Z 3012/0112 VRB02KT 9999 FEW035 BECMG 0100/0102 15015KT BECMG 0106/0108 VRB02KT

Waarnemingen en weersverwachtingen van meer dan 4000 vliegvelden (METAR en TAF).

De beschikbare stations zijn de gele en rode punten op de kaart.

Ga met uw muis naar het station om de naam te zien.

Klik dan om waarnemingen en weersverwachtingen te zien.

kaart wijzigen: klik op de groene knoppen met een zwart kruis om in te zoomen, op de groene knop met een streepje om uit te zoomen of op de groene pijlen voor aangrenzende kaarten.


METAR-TAF: